createdAt,value
2018-03-11T00:00:49.245Z,99.90
2018-03-11T00:02:51.072Z,99.90
2018-03-11T00:04:52.006Z,99.90
2018-03-11T00:06:53.104Z,99.90
2018-03-11T00:08:54.167Z,99.90
2018-03-11T00:10:56.037Z,99.90
2018-03-11T00:12:57.007Z,99.90
2018-03-11T00:14:57.975Z,99.90
2018-03-11T00:16:58.918Z,99.90
2018-03-11T00:18:59.864Z,99.90
2018-03-11T00:21:00.971Z,99.90
2018-03-11T00:23:01.968Z,99.90
2018-03-11T00:25:02.912Z,99.90
2018-03-11T00:27:04.927Z,99.90
2018-03-11T00:29:06.635Z,99.90
2018-03-11T00:31:07.656Z,99.90
2018-03-11T00:33:08.705Z,99.90
2018-03-11T00:35:10.311Z,99.90
2018-03-11T00:37:11.471Z,99.90
2018-03-11T00:39:12.432Z,99.90
2018-03-11T00:41:14.173Z,99.90
2018-03-11T00:43:15.186Z,99.90
2018-03-11T00:45:16.123Z,99.90
2018-03-11T00:47:17.529Z,99.90
2018-03-11T00:49:18.520Z,99.90
2018-03-11T00:51:19.811Z,99.90
2018-03-11T00:53:20.793Z,99.90
2018-03-11T00:55:21.794Z,99.90
2018-03-11T00:57:22.827Z,99.90
2018-03-11T00:59:23.802Z,99.90
2018-03-11T01:01:24.753Z,99.90
2018-03-11T01:03:25.736Z,99.90
2018-03-11T01:05:26.708Z,99.90
2018-03-11T01:07:27.658Z,99.90
2018-03-11T01:09:28.695Z,99.90
2018-03-11T01:11:29.664Z,99.90
2018-03-11T01:13:30.587Z,99.90
2018-03-11T01:15:31.662Z,99.90
2018-03-11T01:17:32.710Z,99.90
2018-03-11T01:19:33.725Z,99.90
2018-03-11T01:21:34.705Z,99.90
2018-03-11T01:23:35.650Z,99.90
2018-03-11T01:25:36.615Z,99.90
2018-03-11T01:27:37.616Z,99.90
2018-03-11T01:29:38.576Z,99.90
2018-03-11T01:31:39.540Z,99.90
2018-03-11T01:33:40.532Z,99.90
2018-03-11T01:35:42.544Z,99.90
2018-03-11T01:37:43.516Z,99.90
2018-03-11T01:39:45.021Z,99.90
2018-03-11T01:42:21.626Z,99.90
2018-03-11T01:44:23.920Z,99.90
2018-03-11T01:46:24.924Z,99.90
2018-03-11T01:48:25.891Z,99.90
2018-03-11T01:50:27.627Z,99.90
2018-03-11T01:52:29.317Z,99.90
2018-03-11T01:54:30.275Z,99.90
2018-03-11T01:56:31.252Z,99.90
2018-03-11T01:58:32.213Z,99.90
2018-03-11T02:00:33.167Z,99.90
2018-03-11T02:02:34.125Z,99.90
2018-03-11T02:04:35.114Z,99.90
2018-03-11T02:06:36.062Z,99.90
2018-03-11T02:08:37.096Z,99.90
2018-03-11T02:10:38.046Z,99.90
2018-03-11T02:12:38.983Z,99.90
2018-03-11T02:14:39.969Z,99.90
2018-03-11T02:16:40.985Z,99.90
2018-03-11T02:18:41.956Z,99.90
2018-03-11T02:20:42.936Z,99.90
2018-03-11T02:22:44.615Z,99.90
2018-03-11T02:24:45.556Z,99.90
2018-03-11T02:26:46.632Z,99.90
2018-03-11T02:28:47.589Z,99.90
2018-03-11T02:30:48.828Z,99.90
2018-03-11T02:32:49.803Z,99.90
2018-03-11T02:34:50.760Z,99.90
2018-03-11T02:36:52.509Z,99.90
2018-03-11T02:38:53.468Z,99.90
2018-03-11T02:40:54.557Z,99.90
2018-03-11T02:42:56.784Z,99.90
2018-03-11T02:44:57.785Z,99.90
2018-03-11T02:46:58.764Z,99.90
2018-03-11T02:48:59.768Z,99.90
2018-03-11T02:51:00.744Z,99.90
2018-03-11T02:53:02.479Z,99.90
2018-03-11T02:55:03.598Z,99.90
2018-03-11T02:57:05.283Z,99.90
2018-03-11T02:59:07.030Z,99.90
2018-03-11T03:01:08.936Z,99.90
2018-03-11T03:03:13.137Z,99.90
2018-03-11T03:05:14.266Z,99.90
2018-03-11T03:07:15.258Z,99.90
2018-03-11T03:09:26.382Z,99.90
2018-03-11T03:11:27.355Z,99.90
2018-03-11T03:13:29.041Z,99.90
2018-03-11T03:15:30.099Z,99.90
2018-03-11T03:17:31.061Z,99.90
2018-03-11T03:19:32.013Z,99.90
2018-03-11T03:21:33.210Z,99.90
2018-03-11T03:23:34.172Z,99.90
2018-03-11T03:25:38.789Z,99.90
2018-03-11T03:27:45.979Z,99.90
2018-03-11T03:29:47.587Z,99.90
2018-03-11T03:31:48.566Z,99.90
2018-03-11T03:33:49.530Z,99.90
2018-03-11T03:35:50.545Z,99.90
2018-03-11T03:37:53.861Z,99.90
2018-03-11T03:39:54.841Z,99.90
2018-03-11T03:41:55.794Z,99.90
2018-03-11T03:43:56.804Z,99.90
2018-03-11T03:45:58.526Z,99.90
2018-03-11T03:47:59.505Z,99.90
2018-03-11T03:50:00.483Z,99.90
2018-03-11T03:52:01.465Z,99.90
2018-03-11T03:54:02.444Z,99.90
2018-03-11T03:56:03.397Z,99.90
2018-03-11T03:58:04.380Z,99.90
2018-03-11T04:00:05.419Z,99.90
2018-03-11T04:02:06.584Z,99.90
2018-03-11T04:04:07.604Z,99.90
2018-03-11T04:06:09.471Z,99.90
2018-03-11T04:08:10.435Z,99.90
2018-03-11T04:10:11.409Z,99.90
2018-03-11T04:12:12.540Z,99.90
2018-03-11T04:14:13.518Z,99.90
2018-03-11T04:16:14.487Z,99.90
2018-03-11T04:18:15.441Z,99.90
2018-03-11T04:20:16.412Z,99.90
2018-03-11T04:22:17.421Z,99.90
2018-03-11T04:24:18.682Z,99.90
2018-03-11T04:26:19.893Z,99.90
2018-03-11T04:28:20.928Z,99.90
2018-03-11T04:30:21.883Z,99.90
2018-03-11T04:32:22.844Z,99.90
2018-03-11T04:34:23.824Z,99.90
2018-03-11T04:36:24.804Z,99.90
2018-03-11T04:38:26.009Z,99.90
2018-03-11T04:40:26.947Z,99.90
2018-03-11T04:42:27.886Z,99.90
2018-03-11T04:44:28.935Z,99.90
2018-03-11T04:46:29.920Z,99.90
2018-03-11T04:48:31.623Z,99.90
2018-03-11T04:50:32.575Z,99.90
2018-03-11T04:52:33.540Z,99.90
2018-03-11T04:54:34.494Z,99.90
2018-03-11T04:56:35.479Z,99.90
2018-03-11T04:58:36.564Z,99.90
2018-03-11T05:00:37.544Z,99.90
2018-03-11T05:02:38.571Z,99.90
2018-03-11T05:04:39.680Z,99.90
2018-03-11T05:06:40.691Z,99.90
2018-03-11T05:08:41.796Z,99.90
2018-03-11T05:10:43.462Z,99.90
2018-03-11T05:12:44.587Z,99.90
2018-03-11T05:14:45.533Z,99.90
2018-03-11T05:16:46.479Z,99.90
2018-03-11T05:18:47.542Z,99.90
2018-03-11T05:20:48.502Z,99.90
2018-03-11T05:22:49.498Z,99.90
2018-03-11T05:24:51.598Z,99.90
2018-03-11T05:26:52.629Z,99.90
2018-03-11T05:28:53.636Z,99.90
2018-03-11T05:30:54.609Z,99.90
2018-03-11T05:32:55.560Z,99.90
2018-03-11T05:34:57.471Z,99.90
2018-03-11T05:36:58.427Z,99.90
2018-03-11T05:38:59.590Z,99.90
2018-03-11T05:41:00.576Z,99.90
2018-03-11T05:43:01.899Z,99.90
2018-03-11T05:45:02.860Z,99.90
2018-03-11T05:47:04.559Z,99.90
2018-03-11T05:49:05.553Z,99.90
2018-03-11T05:51:06.547Z,99.90
2018-03-11T05:53:07.820Z,99.90
2018-03-11T05:55:08.860Z,99.90
2018-03-11T05:57:09.857Z,99.90
2018-03-11T05:59:11.555Z,99.90
2018-03-11T06:01:12.556Z,99.90
2018-03-11T06:03:13.540Z,99.90
2018-03-11T06:05:14.528Z,99.90
2018-03-11T06:07:15.628Z,99.90
2018-03-11T06:09:16.731Z,99.90
2018-03-11T06:11:17.773Z,99.90
2018-03-11T06:13:18.772Z,99.90
2018-03-11T06:15:19.873Z,99.90
2018-03-11T06:17:20.861Z,99.90
2018-03-11T06:19:22.555Z,99.90
2018-03-11T06:21:23.532Z,99.90
2018-03-11T06:23:24.853Z,99.90
2018-03-11T06:25:26.631Z,99.90
2018-03-11T06:27:27.615Z,99.90
2018-03-11T06:29:28.603Z,99.90
2018-03-11T06:31:29.586Z,99.90
2018-03-11T06:33:30.590Z,99.90
2018-03-11T06:35:31.561Z,99.90
2018-03-11T06:37:32.567Z,99.90
2018-03-11T06:39:34.263Z,99.90
2018-03-11T06:41:35.359Z,99.90
2018-03-11T06:43:36.330Z,99.90
2018-03-11T06:45:38.020Z,99.90
2018-03-11T06:47:39.004Z,99.90
2018-03-11T06:49:40.004Z,99.90
2018-03-11T06:51:40.943Z,99.90
2018-03-11T06:53:41.891Z,99.90
2018-03-11T06:55:43.036Z,99.90
2018-03-11T06:57:44.006Z,99.90
2018-03-11T06:59:45.223Z,99.90
2018-03-11T07:01:46.210Z,99.90
2018-03-11T07:03:47.210Z,99.90
2018-03-11T07:05:48.164Z,99.90
2018-03-11T07:07:49.200Z,99.90
2018-03-11T07:09:50.935Z,99.90
2018-03-11T07:11:51.878Z,99.90
2018-03-11T07:13:52.999Z,99.90
2018-03-11T07:15:53.957Z,99.90
2018-03-11T07:17:54.915Z,99.90
2018-03-11T07:19:56.023Z,99.90
2018-03-11T07:21:56.996Z,99.90
2018-03-11T07:23:57.987Z,99.90
2018-03-11T07:25:59.673Z,99.90
2018-03-11T07:28:00.640Z,99.90
2018-03-11T07:30:01.623Z,99.90
2018-03-11T07:32:02.579Z,99.90
2018-03-11T07:34:03.522Z,99.90
2018-03-11T07:36:04.518Z,99.90
2018-03-11T07:38:05.491Z,99.90
2018-03-11T07:40:06.445Z,99.90
2018-03-11T07:42:07.452Z,99.90
2018-03-11T07:44:08.508Z,99.90
2018-03-11T07:46:09.492Z,99.90
2018-03-11T07:48:10.481Z,99.90
2018-03-11T07:50:11.434Z,99.90
2018-03-11T07:52:12.418Z,99.90
2018-03-11T07:54:13.389Z,99.90
2018-03-11T07:56:14.434Z,99.90
2018-03-11T07:58:15.557Z,99.90
2018-03-11T08:00:16.677Z,99.90
2018-03-11T08:02:17.673Z,99.90
2018-03-11T08:04:18.903Z,99.90
2018-03-11T08:06:19.922Z,99.90
2018-03-11T08:08:20.883Z,99.60
2018-03-11T08:10:21.893Z,99.10
2018-03-11T08:12:23.768Z,98.60
2018-03-11T08:14:24.812Z,98.60
2018-03-11T08:16:25.740Z,98.50
2018-03-11T08:18:26.911Z,98.90
2018-03-11T08:20:27.891Z,99.40
2018-03-11T08:22:28.988Z,99.90
2018-03-11T08:24:30.740Z,99.90
2018-03-11T08:26:31.703Z,99.90
2018-03-11T08:28:33.514Z,99.90
2018-03-11T08:30:34.812Z,99.90
2018-03-11T08:32:35.785Z,99.90
2018-03-11T08:34:36.772Z,99.90
2018-03-11T08:36:37.869Z,99.90
2018-03-11T08:38:38.920Z,99.50
2018-03-11T08:40:40.642Z,98.50
2018-03-11T08:42:41.730Z,98.60
2018-03-11T08:44:43.424Z,99.70
2018-03-11T08:46:44.422Z,99.70
2018-03-11T08:48:45.478Z,99.50
2018-03-11T08:50:47.286Z,97.90
2018-03-11T08:52:48.253Z,98.00
2018-03-11T08:54:49.231Z,96.90
2018-03-11T08:56:50.980Z,97.00
2018-03-11T08:58:51.949Z,96.90
2018-03-11T09:00:53.655Z,95.70
2018-03-11T09:02:54.651Z,95.70
2018-03-11T09:04:55.670Z,94.70
2018-03-11T09:06:56.649Z,94.10
2018-03-11T09:08:57.807Z,95.00
2018-03-11T09:10:58.768Z,94.70
2018-03-11T09:13:00.477Z,93.30
2018-03-11T09:15:01.518Z,93.30
2018-03-11T09:17:02.471Z,93.00
2018-03-11T09:19:03.519Z,93.40
2018-03-11T09:21:04.493Z,92.00
2018-03-11T09:23:05.500Z,91.80
2018-03-11T09:25:06.447Z,85.90
2018-03-11T09:27:07.457Z,83.60
2018-03-11T09:29:08.441Z,80.40
2018-03-11T09:31:09.456Z,78.30
2018-03-11T09:33:10.703Z,78.10
2018-03-11T09:35:11.694Z,77.00
2018-03-11T09:37:12.664Z,75.10
2018-03-11T09:39:13.686Z,76.90
2018-03-11T09:41:14.628Z,75.00
2018-03-11T09:47:29.532Z,78.80
2018-03-11T09:49:30.894Z,78.40
2018-03-11T09:51:31.859Z,83.10
2018-03-11T09:53:35.523Z,79.50
2018-03-11T09:55:36.683Z,75.00
2018-03-11T09:57:37.634Z,76.60
2018-03-11T09:59:38.655Z,78.80
2018-03-11T10:01:43.330Z,86.10
2018-03-11T10:03:53.587Z,85.90
2018-03-11T10:05:55.020Z,87.10
2018-03-11T10:07:56.013Z,89.80
2018-03-11T10:09:59.095Z,90.20
2018-03-11T10:12:00.192Z,92.80
2018-03-11T10:14:01.907Z,95.70
2018-03-11T10:16:02.871Z,95.30
2018-03-11T10:18:03.861Z,97.90
2018-03-11T10:20:04.852Z,98.90
2018-03-11T10:22:05.851Z,99.90
2018-03-11T10:24:07.650Z,99.90
2018-03-11T10:26:09.832Z,99.90
2018-03-11T10:28:11.585Z,99.90
2018-03-11T10:30:12.575Z,99.90
2018-03-11T10:32:13.528Z,99.90
2018-03-11T10:34:15.382Z,99.90
2018-03-11T10:36:16.358Z,99.90
2018-03-11T10:38:17.353Z,99.90
2018-03-11T10:40:19.029Z,99.90
2018-03-11T10:42:19.989Z,99.90
2018-03-11T10:44:20.958Z,99.90
2018-03-11T10:46:22.752Z,99.90
2018-03-11T10:48:25.736Z,99.90
2018-03-11T10:50:26.718Z,99.90
2018-03-11T10:52:28.236Z,99.90
2018-03-11T10:54:29.176Z,99.90
2018-03-11T10:56:30.872Z,99.90
2018-03-11T10:58:32.754Z,99.90
2018-03-11T11:00:39.716Z,99.90
2018-03-11T11:02:40.668Z,99.90
2018-03-11T11:04:41.750Z,99.90
2018-03-11T11:06:48.159Z,99.90
2018-03-11T11:08:50.066Z,99.90
2018-03-11T11:10:51.116Z,99.90
2018-03-11T11:12:52.260Z,99.90
2018-03-11T11:14:53.238Z,99.90
2018-03-11T11:19:37.307Z,99.90
2018-03-11T11:21:38.348Z,99.90
2018-03-11T11:23:41.361Z,99.90
2018-03-11T11:25:42.408Z,99.90
2018-03-11T11:27:43.333Z,99.90
2018-03-11T11:29:44.319Z,99.90
2018-03-11T11:32:02.206Z,99.90
2018-03-11T11:34:03.705Z,99.90
2018-03-11T11:36:04.661Z,99.90
2018-03-11T11:38:05.638Z,99.90
2018-03-11T11:40:06.571Z,99.90
2018-03-11T11:42:09.685Z,99.90
2018-03-11T11:44:10.670Z,99.90
2018-03-11T11:46:33.385Z,99.90
2018-03-11T11:48:34.409Z,99.90
2018-03-11T11:50:35.383Z,99.90
2018-03-11T11:52:36.348Z,99.90
2018-03-11T11:54:37.332Z,99.90
2018-03-11T11:56:38.295Z,99.90
2018-03-11T11:58:40.003Z,99.90
2018-03-11T12:00:41.016Z,99.90
2018-03-11T12:02:41.910Z,99.90
2018-03-11T12:04:42.903Z,99.90
2018-03-11T12:06:44.864Z,99.90
2018-03-11T12:08:46.763Z,99.90
2018-03-11T12:10:49.669Z,99.90
2018-03-11T12:12:50.674Z,99.50
2018-03-11T12:14:51.644Z,99.90
2018-03-11T12:16:52.868Z,99.20
2018-03-11T12:18:54.611Z,99.40
2018-03-11T12:20:55.553Z,99.30
2018-03-11T12:22:56.661Z,99.60
2018-03-11T12:24:57.636Z,99.50
2018-03-11T12:26:58.797Z,99.90
2018-03-11T12:31:25.797Z,99.70
2018-03-11T12:33:27.784Z,99.90
2018-03-11T12:35:28.960Z,99.90
2018-03-11T12:37:30.221Z,99.90
2018-03-11T12:42:00.868Z,99.90
2018-03-11T12:44:02.169Z,99.90
2018-03-11T12:46:03.552Z,99.90
2018-03-11T12:48:04.732Z,99.90
2018-03-11T12:50:08.900Z,99.90
2018-03-11T12:52:10.825Z,99.90
2018-03-11T12:54:14.180Z,99.90
2018-03-11T12:56:15.436Z,99.90
2018-03-11T12:58:17.449Z,99.90
2018-03-11T13:00:18.832Z,99.90
2018-03-11T13:02:20.091Z,99.90
2018-03-11T13:04:23.158Z,99.90
2018-03-11T13:06:24.550Z,99.90
2018-03-11T13:08:25.632Z,99.90
2018-03-11T13:10:27.436Z,99.90
2018-03-11T13:12:28.841Z,99.90
2018-03-11T13:14:29.909Z,99.90
2018-03-11T13:16:30.940Z,99.90
2018-03-11T13:18:40.226Z,99.90
2018-03-11T13:20:53.516Z,99.90
2018-03-11T13:22:54.460Z,99.90
2018-03-11T13:24:55.424Z,99.90
2018-03-11T13:26:57.114Z,99.90
2018-03-11T13:29:02.792Z,99.90
2018-03-11T13:31:03.803Z,99.90
2018-03-11T13:33:18.012Z,99.90
2018-03-11T13:35:19.101Z,99.90
2018-03-11T13:37:20.207Z,99.90
2018-03-11T13:39:33.362Z,99.90
2018-03-11T13:41:34.321Z,99.90
2018-03-11T13:43:35.283Z,99.90
2018-03-11T13:45:48.675Z,99.90
2018-03-11T13:47:49.693Z,99.90
2018-03-11T13:49:50.796Z,99.90
2018-03-11T13:52:04.043Z,99.90
2018-03-11T13:54:05.747Z,99.90
2018-03-11T13:56:06.788Z,99.90
2018-03-11T13:58:16.839Z,99.90
2018-03-11T14:00:18.035Z,99.90
2018-03-11T14:02:19.907Z,99.90
2018-03-11T14:04:20.928Z,99.90
2018-03-11T14:06:21.907Z,99.70
2018-03-11T14:08:22.894Z,99.90
2018-03-11T14:10:23.981Z,99.60
2018-03-11T14:12:24.939Z,99.70
2018-03-11T14:14:26.960Z,99.30
2018-03-11T14:16:28.040Z,98.80
2018-03-11T14:18:29.117Z,99.20
2018-03-11T14:20:30.155Z,99.30
2018-03-11T14:22:31.133Z,98.90
2018-03-11T14:24:33.468Z,98.90
2018-03-11T14:26:34.437Z,98.80
2018-03-11T14:28:35.416Z,98.90
2018-03-11T14:30:36.413Z,99.20
2018-03-11T14:32:37.407Z,99.20
2018-03-11T14:34:38.347Z,99.30
2018-03-11T14:36:39.319Z,99.20
2018-03-11T14:38:40.423Z,99.20
2018-03-11T14:40:41.403Z,99.40
2018-03-11T14:42:42.403Z,99.30
2018-03-11T14:44:44.323Z,99.90
2018-03-11T14:46:45.271Z,99.90
2018-03-11T14:48:46.449Z,99.90
2018-03-11T14:50:47.452Z,99.90
2018-03-11T14:52:48.403Z,99.90
2018-03-11T14:54:49.384Z,99.90
2018-03-11T14:56:50.388Z,99.90
2018-03-11T14:58:51.571Z,99.90
2018-03-11T15:00:52.593Z,99.90
2018-03-11T15:02:53.597Z,99.90
2018-03-11T15:04:55.294Z,99.50
2018-03-11T15:06:57.016Z,99.80
2018-03-11T15:08:58.008Z,99.80
2018-03-11T15:10:58.972Z,99.60
2018-03-11T15:13:00.491Z,99.50
2018-03-11T15:15:01.442Z,99.90
2018-03-11T15:17:03.168Z,99.30
2018-03-11T15:19:04.134Z,99.30
2018-03-11T15:21:05.249Z,99.60
2018-03-11T15:23:06.214Z,99.20
2018-03-11T15:25:07.267Z,99.10
2018-03-11T15:27:08.255Z,99.20
2018-03-11T15:29:10.600Z,99.90
2018-03-11T15:31:12.285Z,99.90
2018-03-11T15:33:13.268Z,99.30
2018-03-11T15:35:14.246Z,99.70
2018-03-11T15:37:16.036Z,99.80
2018-03-11T15:39:18.493Z,99.90
2018-03-11T15:41:19.617Z,99.90
2018-03-11T15:43:20.593Z,99.90
2018-03-11T15:45:25.007Z,99.90
2018-03-11T15:47:26.012Z,99.90
2018-03-11T15:49:26.992Z,99.90
2018-03-11T15:51:28.089Z,99.90
2018-03-11T15:53:29.023Z,99.90
2018-03-11T15:55:30.711Z,99.90
2018-03-11T15:57:32.406Z,99.90
2018-03-11T15:59:33.388Z,99.90
2018-03-11T16:01:35.119Z,99.90
2018-03-11T16:03:36.072Z,99.90
2018-03-11T16:05:37.491Z,99.90
2018-03-11T16:07:38.591Z,99.90
2018-03-11T16:09:39.534Z,99.90
2018-03-11T16:11:40.484Z,99.90
2018-03-11T16:13:41.535Z,99.90
2018-03-11T16:15:42.492Z,99.90
2018-03-11T16:17:43.443Z,99.90
2018-03-11T16:19:44.446Z,99.90
2018-03-11T16:21:45.649Z,99.90
2018-03-11T16:23:46.651Z,99.90
2018-03-11T16:25:47.780Z,99.90
2018-03-11T16:27:48.909Z,99.90
2018-03-11T16:29:49.976Z,99.90
2018-03-11T16:31:51.015Z,99.90
2018-03-11T16:33:51.972Z,99.90
2018-03-11T16:35:53.655Z,99.90
2018-03-11T16:37:54.615Z,99.90
2018-03-11T16:39:55.571Z,99.90
2018-03-11T16:41:57.135Z,99.90
2018-03-11T16:43:58.110Z,99.90
2018-03-11T16:45:59.147Z,99.90
2018-03-11T16:48:00.895Z,99.90
2018-03-11T16:50:01.867Z,99.90
2018-03-11T16:52:03.100Z,99.90
2018-03-11T16:54:04.117Z,99.90
2018-03-11T16:56:05.120Z,99.90
2018-03-11T16:58:06.090Z,99.90
2018-03-11T17:00:07.113Z,99.90
2018-03-11T17:02:08.070Z,99.90
2018-03-11T17:04:09.037Z,99.90
2018-03-11T17:06:16.335Z,99.90
2018-03-11T17:08:17.336Z,99.90
2018-03-11T17:10:19.198Z,99.90
2018-03-11T17:12:20.212Z,99.90
2018-03-11T17:14:21.160Z,99.90
2018-03-11T17:16:22.209Z,99.90
2018-03-11T17:18:23.193Z,99.90
2018-03-11T17:20:24.952Z,99.90
2018-03-11T17:22:26.157Z,99.90
2018-03-11T17:24:27.156Z,99.90
2018-03-11T17:26:28.162Z,99.90
2018-03-11T17:28:29.149Z,99.90
2018-03-11T17:30:30.901Z,99.90
2018-03-11T17:32:32.623Z,99.90
2018-03-11T17:34:33.615Z,99.90
2018-03-11T17:36:35.320Z,99.90
2018-03-11T17:38:36.311Z,99.90
2018-03-11T17:40:37.572Z,99.90
2018-03-11T17:42:40.055Z,99.90
2018-03-11T17:44:41.706Z,99.90
2018-03-11T17:46:43.514Z,99.90
2018-03-11T17:48:44.670Z,99.90
2018-03-11T17:50:45.674Z,99.90
2018-03-11T17:52:46.676Z,99.90
2018-03-11T17:54:47.675Z,99.90
2018-03-11T17:56:50.388Z,99.90
2018-03-11T17:58:51.411Z,99.90
2018-03-11T18:00:52.377Z,99.90
2018-03-11T18:02:53.448Z,99.90
2018-03-11T18:04:54.529Z,99.90
2018-03-11T18:06:55.556Z,99.90
2018-03-11T18:08:56.523Z,99.90
2018-03-11T18:10:57.492Z,99.90
2018-03-11T18:12:58.588Z,99.90
2018-03-11T18:15:02.135Z,99.90
2018-03-11T18:17:03.120Z,99.90
2018-03-11T18:19:04.584Z,99.90
2018-03-11T18:21:05.525Z,99.90
2018-03-11T18:23:06.546Z,99.90
2018-03-11T18:25:07.497Z,99.90
2018-03-11T18:27:08.446Z,99.90
2018-03-11T18:29:10.510Z,99.90
2018-03-11T18:31:12.220Z,99.90
2018-03-11T18:33:13.258Z,99.90
2018-03-11T18:35:14.237Z,99.90
2018-03-11T18:37:15.267Z,99.90
2018-03-11T18:39:16.511Z,99.90
2018-03-11T18:41:17.466Z,99.90
2018-03-11T18:43:19.660Z,99.90
2018-03-11T18:45:20.652Z,99.90
2018-03-11T18:47:22.428Z,99.90
2018-03-11T18:49:23.409Z,99.90
2018-03-11T18:51:25.300Z,99.90
2018-03-11T18:53:27.017Z,99.90
2018-03-11T18:55:28.167Z,99.90
2018-03-11T18:57:29.284Z,99.90
2018-03-11T18:59:30.226Z,99.90
2018-03-11T19:01:31.968Z,99.90
2018-03-11T19:03:32.981Z,99.90
2018-03-11T19:05:33.884Z,99.90
2018-03-11T19:07:35.644Z,99.90
2018-03-11T19:09:36.643Z,99.90
2018-03-11T19:11:37.613Z,99.90
2018-03-11T19:13:38.583Z,99.90
2018-03-11T19:15:40.877Z,99.90
2018-03-11T19:17:42.278Z,99.90
2018-03-11T19:19:43.322Z,99.90
2018-03-11T19:21:44.298Z,99.90
2018-03-11T19:23:46.441Z,99.90
2018-03-11T19:25:47.436Z,99.90
2018-03-11T19:27:50.349Z,99.90
2018-03-11T19:29:53.393Z,99.90
2018-03-11T19:31:54.476Z,99.90
2018-03-11T19:34:00.115Z,99.90
2018-03-11T19:36:01.144Z,99.90
2018-03-11T19:38:03.091Z,99.90
2018-03-11T19:40:04.023Z,99.90
2018-03-11T19:42:06.339Z,99.90
2018-03-11T19:44:07.500Z,99.90
2018-03-11T19:46:09.256Z,99.90
2018-03-11T19:48:10.261Z,99.90
2018-03-11T19:50:11.250Z,99.90
2018-03-11T19:52:15.783Z,99.90
2018-03-11T19:54:17.053Z,99.90
2018-03-11T19:56:18.809Z,99.90
2018-03-11T19:58:20.011Z,99.90
2018-03-11T20:00:20.948Z,99.90
2018-03-11T20:02:21.936Z,99.90
2018-03-11T20:04:23.672Z,99.90
2018-03-11T20:06:24.741Z,99.90
2018-03-11T20:08:25.728Z,99.90
2018-03-11T20:10:27.124Z,99.90
2018-03-11T20:12:28.198Z,99.90
2018-03-11T20:14:29.156Z,99.90
2018-03-11T20:16:30.691Z,99.90
2018-03-11T20:18:31.671Z,99.90
2018-03-11T20:20:32.649Z,99.90
2018-03-11T20:22:33.763Z,99.90
2018-03-11T20:24:38.967Z,99.90
2018-03-11T20:26:40.310Z,99.90
2018-03-11T20:28:41.316Z,99.90
2018-03-11T20:30:42.306Z,99.90
2018-03-11T20:32:43.522Z,99.90
2018-03-11T20:34:44.832Z,99.90
2018-03-11T20:36:45.947Z,99.90
2018-03-11T20:38:46.997Z,99.90
2018-03-11T20:40:48.111Z,99.90
2018-03-11T20:42:49.087Z,99.90
2018-03-11T20:44:50.436Z,99.90
2018-03-11T20:46:51.436Z,99.90
2018-03-11T20:48:52.483Z,99.90
2018-03-11T20:50:54.669Z,99.90
2018-03-11T20:52:55.657Z,99.90
2018-03-11T20:54:56.654Z,99.90
2018-03-11T20:56:57.645Z,99.90
2018-03-11T20:58:58.716Z,99.90
2018-03-11T21:01:00.153Z,99.90
2018-03-11T21:03:01.235Z,99.90
2018-03-11T21:05:02.288Z,99.90
2018-03-11T21:07:03.268Z,99.90
2018-03-11T21:09:04.728Z,99.90
2018-03-11T21:11:05.810Z,99.90
2018-03-11T21:13:06.819Z,99.90
2018-03-11T21:15:08.538Z,99.90
2018-03-11T21:17:10.257Z,99.90
2018-03-11T21:19:11.366Z,99.90
2018-03-11T21:21:12.959Z,99.90
2018-03-11T21:23:14.736Z,99.90
2018-03-11T21:25:15.716Z,99.90
2018-03-11T21:27:16.676Z,99.90
2018-03-11T21:29:17.714Z,99.90
2018-03-11T21:31:18.688Z,99.90
2018-03-11T21:33:19.896Z,99.90
2018-03-11T21:35:20.907Z,99.90
2018-03-11T21:37:22.431Z,99.90
2018-03-11T21:39:23.432Z,99.90
2018-03-11T21:41:24.777Z,99.90
2018-03-11T21:43:29.628Z,99.90
2018-03-11T21:45:30.775Z,99.90
2018-03-11T21:47:31.876Z,99.90
2018-03-11T21:49:32.843Z,99.90
2018-03-11T21:51:33.839Z,99.90
2018-03-11T21:53:34.808Z,99.90
2018-03-11T21:55:35.740Z,99.90
2018-03-11T21:57:36.758Z,99.90
2018-03-11T21:59:37.757Z,99.90
2018-03-11T22:01:38.857Z,99.90
2018-03-11T22:03:39.877Z,99.90
2018-03-11T22:05:40.895Z,99.90
2018-03-11T22:07:43.909Z,99.90
2018-03-11T22:09:44.960Z,99.90
2018-03-11T22:11:45.928Z,99.90
2018-03-11T22:13:47.739Z,99.90
2018-03-11T22:15:48.704Z,99.90
2018-03-11T22:17:49.700Z,99.90
2018-03-11T22:19:50.700Z,99.90
2018-03-11T22:21:52.396Z,99.90
2018-03-11T22:23:53.572Z,99.90
2018-03-11T22:25:56.950Z,99.90
2018-03-11T22:27:57.986Z,99.90
2018-03-11T22:29:59.849Z,99.90
2018-03-11T22:32:05.804Z,99.90
2018-03-11T22:34:06.822Z,99.90
2018-03-11T22:36:07.784Z,99.90
2018-03-11T22:38:08.987Z,99.90
2018-03-11T22:40:09.952Z,99.90
2018-03-11T22:42:11.146Z,99.90
2018-03-11T22:44:12.148Z,99.90
2018-03-11T22:46:13.106Z,99.90
2018-03-11T22:48:14.088Z,99.90
2018-03-11T22:50:15.125Z,99.90
2018-03-11T22:52:16.088Z,99.90
2018-03-11T22:54:17.930Z,99.90
2018-03-11T22:56:19.149Z,99.90
2018-03-11T22:58:20.418Z,99.90
2018-03-11T23:00:21.660Z,99.90
2018-03-11T23:02:22.687Z,99.90
2018-03-11T23:04:23.668Z,99.90
2018-03-11T23:06:24.626Z,99.90
2018-03-11T23:08:25.659Z,99.90
2018-03-11T23:10:26.630Z,99.90
2018-03-11T23:12:27.624Z,99.90
2018-03-11T23:14:28.583Z,99.90
2018-03-11T23:16:29.551Z,99.90
2018-03-11T23:18:30.522Z,99.90
2018-03-11T23:20:31.543Z,99.90
2018-03-11T23:22:32.498Z,99.90
2018-03-11T23:24:33.497Z,99.90
2018-03-11T23:26:34.438Z,99.90
2018-03-11T23:28:35.449Z,99.90
2018-03-11T23:30:36.497Z,99.90
2018-03-11T23:32:39.491Z,99.90
2018-03-11T23:34:40.484Z,99.90
2018-03-11T23:36:41.827Z,99.90
2018-03-11T23:38:42.813Z,99.90
2018-03-11T23:40:43.786Z,99.90
2018-03-11T23:42:44.749Z,99.90
2018-03-11T23:44:46.498Z,99.90
2018-03-11T23:46:47.499Z,99.90
2018-03-11T23:48:48.689Z,99.90
2018-03-11T23:50:50.404Z,99.90
2018-03-11T23:52:51.392Z,99.90
2018-03-11T23:54:52.410Z,99.90
2018-03-11T23:56:53.405Z,99.90
2018-03-11T23:58:54.381Z,99.90
